sensor_id;sensor_type;location;lat;lon;timestamp;P1;durP1;ratioP1;P2;durP2;ratioP2
45011;SDS011;63444;48.148;11.542;2023-09-19T00:00:42;1.30;;;1.20;;
45011;SDS011;63444;48.148;11.542;2023-09-19T00:03:09;1.50;;;1.27;;
45011;SDS011;63444;48.148;11.542;2023-09-19T00:05:35;2.43;;;1.20;;
45011;SDS011;63444;48.148;11.542;2023-09-19T00:08:01;1.40;;;1.30;;
45011;SDS011;63444;48.148;11.542;2023-09-19T00:10:31;2.30;;;1.20;;
45011;SDS011;63444;48.148;11.542;2023-09-19T00:13:00;1.10;;;1.00;;
45011;SDS011;63444;48.148;11.542;2023-09-19T00:15:35;2.97;;;1.30;;
45011;SDS011;63444;48.148;11.542;2023-09-19T00:18:03;1.60;;;1.20;;
45011;SDS011;63444;48.148;11.542;2023-09-19T00:20:35;1.33;;;1.20;;
45011;SDS011;63444;48.148;11.542;2023-09-19T00:23:01;1.30;;;1.10;;
45011;SDS011;63444;48.148;11.542;2023-09-19T00:25:30;2.67;;;1.20;;
45011;SDS011;63444;48.148;11.542;2023-09-19T00:27:57;1.40;;;1.27;;
45011;SDS011;63444;48.148;11.542;2023-09-19T00:30:23;1.17;;;1.07;;
45011;SDS011;63444;48.148;11.542;2023-09-19T00:32:49;2.17;;;1.20;;
45011;SDS011;63444;48.148;11.542;2023-09-19T00:35:19;1.33;;;1.23;;
45011;SDS011;63444;48.148;11.542;2023-09-19T00:37:51;1.47;;;1.20;;
45011;SDS011;63444;48.148;11.542;2023-09-19T00:40:17;1.37;;;1.20;;
45011;SDS011;63444;48.148;11.542;2023-09-19T00:42:43;1.67;;;1.20;;
45011;SDS011;63444;48.148;11.542;2023-09-19T00:45:10;1.13;;;1.03;;
45011;SDS011;63444;48.148;11.542;2023-09-19T00:47:49;1.50;;;1.17;;
45011;SDS011;63444;48.148;11.542;2023-09-19T00:50:17;2.30;;;1.20;;
45011;SDS011;63444;48.148;11.542;2023-09-19T00:52:46;2.30;;;1.30;;
45011;SDS011;63444;48.148;11.542;2023-09-19T00:55:13;4.83;;;1.40;;
45011;SDS011;63444;48.148;11.542;2023-09-19T00:57:41;3.03;;;1.10;;
45011;SDS011;63444;48.148;11.542;2023-09-19T01:00:07;2.13;;;1.43;;
45011;SDS011;63444;48.148;11.542;2023-09-19T01:02:37;1.60;;;1.30;;
45011;SDS011;63444;48.148;11.542;2023-09-19T01:05:03;2.13;;;1.23;;
45011;SDS011;63444;48.148;11.542;2023-09-19T01:07:31;1.40;;;1.10;;
45011;SDS011;63444;48.148;11.542;2023-09-19T01:09:58;2.30;;;1.30;;
45011;SDS011;63444;48.148;11.542;2023-09-19T01:12:30;2.13;;;1.30;;
45011;SDS011;63444;48.148;11.542;2023-09-19T01:15:55;2.80;;;1.33;;
45011;SDS011;63444;48.148;11.542;2023-09-19T01:28:45;1.87;;;1.30;;
45011;SDS011;63444;48.148;11.542;2023-09-19T01:31:22;3.23;;;1.23;;
45011;SDS011;63444;48.148;11.542;2023-09-19T01:33:53;3.70;;;1.30;;
45011;SDS011;63444;48.148;11.542;2023-09-19T01:36:25;1.17;;;1.00;;
45011;SDS011;63444;48.148;11.542;2023-09-19T01:38:51;1.33;;;1.23;;
45011;SDS011;63444;48.148;11.542;2023-09-19T01:44:21;1.73;;;1.30;;
45011;SDS011;63444;48.148;11.542;2023-09-19T01:46:59;2.10;;;1.17;;
45011;SDS011;63444;48.148;11.542;2023-09-19T01:49:44;1.40;;;1.23;;
45011;SDS011;63444;48.148;11.542;2023-09-19T01:52:31;1.40;;;1.30;;
45011;SDS011;63444;48.148;11.542;2023-09-19T01:55:05;1.20;;;1.10;;
45011;SDS011;63444;48.148;11.542;2023-09-19T01:57:40;1.57;;;1.30;;
45011;SDS011;63444;48.148;11.542;2023-09-19T02:00:15;1.30;;;1.20;;
45011;SDS011;63444;48.148;11.542;2023-09-19T02:02:44;1.40;;;1.30;;
45011;SDS011;63444;48.148;11.542;2023-09-19T02:05:12;1.47;;;1.27;;
45011;SDS011;63444;48.148;11.542;2023-09-19T02:07:38;3.57;;;1.30;;
45011;SDS011;63444;48.148;11.542;2023-09-19T02:10:05;2.30;;;1.40;;
45011;SDS011;63444;48.148;11.542;2023-09-19T02:12:32;1.50;;;1.33;;
45011;SDS011;63444;48.148;11.542;2023-09-19T02:14:58;1.20;;;1.10;;
45011;SDS011;63444;48.148;11.542;2023-09-19T02:17:24;1.63;;;1.33;;
45011;SDS011;63444;48.148;11.542;2023-09-19T02:19:53;1.53;;;1.23;;
45011;SDS011;63444;48.148;11.542;2023-09-19T02:22:20;1.43;;;1.20;;
45011;SDS011;63444;48.148;11.542;2023-09-19T02:24:49;1.30;;;1.20;;
45011;SDS011;63444;48.148;11.542;2023-09-19T02:27:15;1.20;;;1.10;;
45011;SDS011;63444;48.148;11.542;2023-09-19T02:29:42;1.33;;;1.23;;
45011;SDS011;63444;48.148;11.542;2023-09-19T02:32:08;1.67;;;1.17;;
45011;SDS011;63444;48.148;11.542;2023-09-19T02:34:37;1.97;;;1.40;;
45011;SDS011;63444;48.148;11.542;2023-09-19T02:37:04;3.03;;;1.30;;
45011;SDS011;63444;48.148;11.542;2023-09-19T02:39:33;1.60;;;1.30;;
45011;SDS011;63444;48.148;11.542;2023-09-19T02:42:00;1.50;;;1.23;;
45011;SDS011;63444;48.148;11.542;2023-09-19T02:44:26;3.67;;;1.13;;
45011;SDS011;63444;48.148;11.542;2023-09-19T02:46:52;2.77;;;1.37;;
45011;SDS011;63444;48.148;11.542;2023-09-19T02:49:18;1.50;;;1.40;;
45011;SDS011;63444;48.148;11.542;2023-09-19T02:51:44;4.17;;;1.27;;
45011;SDS011;63444;48.148;11.542;2023-09-19T02:54:10;1.87;;;1.47;;
45011;SDS011;63444;48.148;11.542;2023-09-19T02:56:36;3.00;;;1.40;;
45011;SDS011;63444;48.148;11.542;2023-09-19T02:59:02;2.40;;;1.40;;
45011;SDS011;63444;48.148;11.542;2023-09-19T03:01:29;1.80;;;1.43;;
45011;SDS011;63444;48.148;11.542;2023-09-19T03:03:54;4.00;;;1.47;;
45011;SDS011;63444;48.148;11.542;2023-09-19T03:06:21;1.90;;;1.20;;
45011;SDS011;63444;48.148;11.542;2023-09-19T03:08:47;2.07;;;1.33;;
45011;SDS011;63444;48.148;11.542;2023-09-19T03:11:13;2.93;;;1.43;;
45011;SDS011;63444;48.148;11.542;2023-09-19T03:13:40;2.17;;;1.17;;
45011;SDS011;63444;48.148;11.542;2023-09-19T03:16:07;1.33;;;1.23;;
45011;SDS011;63444;48.148;11.542;2023-09-19T03:18:36;1.50;;;1.40;;
45011;SDS011;63444;48.148;11.542;2023-09-19T03:21:02;1.30;;;1.20;;
45011;SDS011;63444;48.148;11.542;2023-09-19T03:23:28;1.40;;;1.30;;
45011;SDS011;63444;48.148;11.542;2023-09-19T03:25:54;1.90;;;1.20;;
45011;SDS011;63444;48.148;11.542;2023-09-19T03:28:21;1.47;;;1.23;;
45011;SDS011;63444;48.148;11.542;2023-09-19T03:30:57;1.70;;;1.27;;
45011;SDS011;63444;48.148;11.542;2023-09-19T03:33:26;1.60;;;1.30;;
45011;SDS011;63444;48.148;11.542;2023-09-19T03:35:52;1.60;;;1.47;;
45011;SDS011;63444;48.148;11.542;2023-09-19T03:38:19;2.90;;;1.47;;
45011;SDS011;63444;48.148;11.542;2023-09-19T03:40:44;1.93;;;1.20;;
45011;SDS011;63444;48.148;11.542;2023-09-19T03:43:10;1.87;;;1.30;;
45011;SDS011;63444;48.148;11.542;2023-09-19T03:45:36;1.30;;;1.20;;
45011;SDS011;63444;48.148;11.542;2023-09-19T03:48:06;1.30;;;1.20;;
45011;SDS011;63444;48.148;11.542;2023-09-19T03:50:33;1.67;;;1.23;;
45011;SDS011;63444;48.148;11.542;2023-09-19T03:52:59;2.37;;;1.50;;
45011;SDS011;63444;48.148;11.542;2023-09-19T03:55:25;1.77;;;1.30;;
45011;SDS011;63444;48.148;11.542;2023-09-19T03:57:50;1.30;;;1.20;;
45011;SDS011;63444;48.148;11.542;2023-09-19T04:00:16;1.63;;;1.30;;
45011;SDS011;63444;48.148;11.542;2023-09-19T04:02:46;1.97;;;1.30;;
45011;SDS011;63444;48.148;11.542;2023-09-19T04:05:12;1.60;;;1.30;;
45011;SDS011;63444;48.148;11.542;2023-09-19T04:07:37;2.43;;;1.60;;
45011;SDS011;63444;48.148;11.542;2023-09-19T04:10:03;2.53;;;1.40;;
45011;SDS011;63444;48.148;11.542;2023-09-19T04:12:29;1.90;;;1.40;;
45011;SDS011;63444;48.148;11.542;2023-09-19T04:14:55;2.67;;;1.60;;
45011;SDS011;63444;48.148;11.542;2023-09-19T04:17:20;1.60;;;1.30;;
45011;SDS011;63444;48.148;11.542;2023-09-19T04:19:46;1.57;;;1.20;;
45011;SDS011;63444;48.148;11.542;2023-09-19T04:22:11;2.83;;;1.30;;
45011;SDS011;63444;48.148;11.542;2023-09-19T04:24:38;1.73;;;1.30;;
45011;SDS011;63444;48.148;11.542;2023-09-19T04:27:04;1.60;;;1.30;;
45011;SDS011;63444;48.148;11.542;2023-09-19T04:29:30;1.80;;;1.40;;
45011;SDS011;63444;48.148;11.542;2023-09-19T04:31:56;1.87;;;1.20;;
45011;SDS011;63444;48.148;11.542;2023-09-19T04:34:22;1.20;;;1.10;;
45011;SDS011;63444;48.148;11.542;2023-09-19T04:36:49;1.53;;;1.40;;
45011;SDS011;63444;48.148;11.542;2023-09-19T04:39:14;1.80;;;1.33;;
45011;SDS011;63444;48.148;11.542;2023-09-19T04:41:41;2.47;;;1.50;;
45011;SDS011;63444;48.148;11.542;2023-09-19T04:44:07;1.80;;;1.63;;
45011;SDS011;63444;48.148;11.542;2023-09-19T04:46:35;1.67;;;1.40;;
45011;SDS011;63444;48.148;11.542;2023-09-19T04:49:01;3.00;;;1.60;;
45011;SDS011;63444;48.148;11.542;2023-09-19T04:51:27;2.27;;;1.50;;
45011;SDS011;63444;48.148;11.542;2023-09-19T04:53:57;2.83;;;1.50;;
45011;SDS011;63444;48.148;11.542;2023-09-19T04:56:23;2.30;;;1.40;;
45011;SDS011;63444;48.148;11.542;2023-09-19T04:58:49;1.70;;;1.30;;
45011;SDS011;63444;48.148;11.542;2023-09-19T05:01:14;1.40;;;1.30;;
45011;SDS011;63444;48.148;11.542;2023-09-19T05:03:41;2.40;;;1.57;;
45011;SDS011;63444;48.148;11.542;2023-09-19T05:06:07;1.83;;;1.30;;
45011;SDS011;63444;48.148;11.542;2023-09-19T05:08:32;1.50;;;1.40;;
45011;SDS011;63444;48.148;11.542;2023-09-19T05:10:58;1.70;;;1.30;;
45011;SDS011;63444;48.148;11.542;2023-09-19T05:13:27;2.73;;;1.40;;
45011;SDS011;63444;48.148;11.542;2023-09-19T05:15:52;3.27;;;1.50;;
45011;SDS011;63444;48.148;11.542;2023-09-19T05:18:18;2.40;;;1.60;;
45011;SDS011;63444;48.148;11.542;2023-09-19T05:20:44;2.20;;;1.50;;
45011;SDS011;63444;48.148;11.542;2023-09-19T05:23:09;1.93;;;1.30;;
45011;SDS011;63444;48.148;11.542;2023-09-19T05:25:38;3.10;;;1.40;;
45011;SDS011;63444;48.148;11.542;2023-09-19T05:28:06;3.77;;;1.70;;
45011;SDS011;63444;48.148;11.542;2023-09-19T05:30:32;1.63;;;1.50;;
45011;SDS011;63444;48.148;11.542;2023-09-19T05:32:58;1.37;;;1.27;;
45011;SDS011;63444;48.148;11.542;2023-09-19T05:35:24;2.20;;;1.50;;
45011;SDS011;63444;48.148;11.542;2023-09-19T05:37:51;2.30;;;1.60;;
45011;SDS011;63444;48.148;11.542;2023-09-19T05:40:18;2.10;;;1.40;;
45011;SDS011;63444;48.148;11.542;2023-09-19T05:42:44;1.83;;;1.30;;
45011;SDS011;63444;48.148;11.542;2023-09-19T05:45:10;2.50;;;1.50;;
45011;SDS011;63444;48.148;11.542;2023-09-19T05:47:37;2.33;;;1.23;;
45011;SDS011;63444;48.148;11.542;2023-09-19T05:50:05;1.57;;;1.30;;
45011;SDS011;63444;48.148;11.542;2023-09-19T05:52:32;1.60;;;1.50;;
45011;SDS011;63444;48.148;11.542;2023-09-19T05:54:58;1.90;;;1.53;;
45011;SDS011;63444;48.148;11.542;2023-09-19T05:57:24;1.57;;;1.43;;
45011;SDS011;63444;48.148;11.542;2023-09-19T05:59:50;1.63;;;1.40;;
45011;SDS011;63444;48.148;11.542;2023-09-19T06:02:16;3.13;;;1.40;;
45011;SDS011;63444;48.148;11.542;2023-09-19T06:04:44;1.90;;;1.30;;
45011;SDS011;63444;48.148;11.542;2023-09-19T06:07:09;1.50;;;1.40;;
45011;SDS011;63444;48.148;11.542;2023-09-19T06:09:37;6.80;;;1.60;;
45011;SDS011;63444;48.148;11.542;2023-09-19T06:12:02;1.43;;;1.33;;
45011;SDS011;63444;48.148;11.542;2023-09-19T06:14:28;1.57;;;1.23;;
45011;SDS011;63444;48.148;11.542;2023-09-19T06:16:54;1.83;;;1.33;;
45011;SDS011;63444;48.148;11.542;2023-09-19T06:19:20;1.73;;;1.40;;
45011;SDS011;63444;48.148;11.542;2023-09-19T06:21:47;2.80;;;1.27;;
45011;SDS011;63444;48.148;11.542;2023-09-19T06:24:14;2.97;;;1.53;;
45011;SDS011;63444;48.148;11.542;2023-09-19T06:26:40;1.90;;;1.40;;
45011;SDS011;63444;48.148;11.542;2023-09-19T06:29:05;2.00;;;1.30;;
45011;SDS011;63444;48.148;11.542;2023-09-19T06:31:32;1.77;;;1.10;;
45011;SDS011;63444;48.148;11.542;2023-09-19T06:33:58;1.27;;;1.17;;
45011;SDS011;63444;48.148;11.542;2023-09-19T06:36:24;1.43;;;1.33;;
45011;SDS011;63444;48.148;11.542;2023-09-19T06:38:50;1.83;;;1.30;;
45011;SDS011;63444;48.148;11.542;2023-09-19T06:41:18;1.23;;;1.10;;
45011;SDS011;63444;48.148;11.542;2023-09-19T06:43:44;2.23;;;1.40;;
45011;SDS011;63444;48.148;11.542;2023-09-19T06:46:10;3.63;;;1.73;;
45011;SDS011;63444;48.148;11.542;2023-09-19T06:48:37;1.50;;;1.40;;
45011;SDS011;63444;48.148;11.542;2023-09-19T06:51:03;2.50;;;1.40;;
45011;SDS011;63444;48.148;11.542;2023-09-19T06:53:33;2.30;;;1.47;;
45011;SDS011;63444;48.148;11.542;2023-09-19T06:56:00;2.42;;;1.55;;
45011;SDS011;63444;48.148;11.542;2023-09-19T06:58:26;4.50;;;1.20;;
45011;SDS011;63444;48.148;11.542;2023-09-19T07:00:52;3.97;;;1.73;;
45011;SDS011;63444;48.148;11.542;2023-09-19T07:03:18;4.43;;;1.40;;
45011;SDS011;63444;48.148;11.542;2023-09-19T07:05:47;2.95;;;1.40;;
45011;SDS011;63444;48.148;11.542;2023-09-19T07:08:13;3.50;;;1.30;;
45011;SDS011;63444;48.148;11.542;2023-09-19T07:10:40;2.88;;;1.20;;
45011;SDS011;63444;48.148;11.542;2023-09-19T07:13:09;1.48;;;1.30;;
45011;SDS011;63444;48.148;11.542;2023-09-19T07:15:36;1.42;;;1.10;;
45011;SDS011;63444;48.148;11.542;2023-09-19T07:18:05;1.85;;;1.40;;
45011;SDS011;63444;48.148;11.542;2023-09-19T07:20:31;1.40;;;1.20;;
45011;SDS011;63444;48.148;11.542;2023-09-19T07:22:59;1.83;;;1.20;;
45011;SDS011;63444;48.148;11.542;2023-09-19T07:25:26;1.38;;;1.13;;
45011;SDS011;63444;48.148;11.542;2023-09-19T07:27:55;1.85;;;1.27;;
45011;SDS011;63444;48.148;11.542;2023-09-19T07:30:21;1.35;;;1.17;;
45011;SDS011;63444;48.148;11.542;2023-09-19T07:32:47;1.30;;;1.10;;
45011;SDS011;63444;48.148;11.542;2023-09-19T07:35:13;1.20;;;1.10;;
45011;SDS011;63444;48.148;11.542;2023-09-19T07:37:40;1.30;;;1.20;;
45011;SDS011;63444;48.148;11.542;2023-09-19T07:40:06;1.30;;;1.10;;
45011;SDS011;63444;48.148;11.542;2023-09-19T07:42:35;1.92;;;1.27;;
45011;SDS011;63444;48.148;11.542;2023-09-19T07:45:05;6.32;;;1.48;;
45011;SDS011;63444;48.148;11.542;2023-09-19T07:47:32;1.60;;;1.33;;
45011;SDS011;63444;48.148;11.542;2023-09-19T07:49:59;1.83;;;1.40;;
45011;SDS011;63444;48.148;11.542;2023-09-19T07:52:27;1.80;;;1.30;;
45011;SDS011;63444;48.148;11.542;2023-09-19T07:54:53;1.33;;;1.10;;
45011;SDS011;63444;48.148;11.542;2023-09-19T07:57:19;3.75;;;1.23;;
45011;SDS011;63444;48.148;11.542;2023-09-19T07:59:45;2.75;;;1.25;;
45011;SDS011;63444;48.148;11.542;2023-09-19T08:02:11;2.80;;;1.40;;
45011;SDS011;63444;48.148;11.542;2023-09-19T08:04:44;1.00;;;1.00;;
45011;SDS011;63444;48.148;11.542;2023-09-19T08:07:13;1.55;;;1.20;;
45011;SDS011;63444;48.148;11.542;2023-09-19T08:09:39;2.40;;;1.30;;
45011;SDS011;63444;48.148;11.542;2023-09-19T08:12:06;1.55;;;1.00;;
45011;SDS011;63444;48.148;11.542;2023-09-19T08:14:35;1.40;;;1.17;;
45011;SDS011;63444;48.148;11.542;2023-09-19T08:17:02;1.95;;;1.30;;
45011;SDS011;63444;48.148;11.542;2023-09-19T08:19:29;2.80;;;1.15;;
45011;SDS011;63444;48.148;11.542;2023-09-19T08:21:57;2.63;;;1.25;;
45011;SDS011;63444;48.148;11.542;2023-09-19T08:24:28;1.20;;;1.05;;
45011;SDS011;63444;48.148;11.542;2023-09-19T08:26:54;2.22;;;1.50;;
45011;SDS011;63444;48.148;11.542;2023-09-19T08:29:20;1.45;;;1.30;;
45011;SDS011;63444;48.148;11.542;2023-09-19T08:31:52;2.15;;;1.15;;
45011;SDS011;63444;48.148;11.542;2023-09-19T08:34:19;2.45;;;1.23;;
45011;SDS011;63444;48.148;11.542;2023-09-19T08:36:46;1.70;;;1.00;;
45011;SDS011;63444;48.148;11.542;2023-09-19T08:39:13;1.13;;;1.02;;
45011;SDS011;63444;48.148;11.542;2023-09-19T08:41:39;2.08;;;1.15;;
45011;SDS011;63444;48.148;11.542;2023-09-19T08:44:05;1.55;;;1.20;;
45011;SDS011;63444;48.148;11.542;2023-09-19T08:46:30;1.48;;;1.10;;
45011;SDS011;63444;48.148;11.542;2023-09-19T08:49:08;2.60;;;1.20;;
45011;SDS011;63444;48.148;11.542;2023-09-19T08:51:47;3.45;;;1.10;;
45011;SDS011;63444;48.148;11.542;2023-09-19T08:54:21;1.25;;;1.05;;
45011;SDS011;63444;48.148;11.542;2023-09-19T08:56:51;1.02;;;0.93;;
45011;SDS011;63444;48.148;11.542;2023-09-19T08:59:21;1.85;;;1.15;;
45011;SDS011;63444;48.148;11.542;2023-09-19T09:01:50;1.42;;;1.08;;
45011;SDS011;63444;48.148;11.542;2023-09-19T09:04:18;1.88;;;1.40;;
45011;SDS011;63444;48.148;11.542;2023-09-19T09:06:45;1.30;;;1.10;;
45011;SDS011;63444;48.148;11.542;2023-09-19T09:09:14;1.10;;;1.00;;
45011;SDS011;63444;48.148;11.542;2023-09-19T09:11:40;1.33;;;1.10;;
45011;SDS011;63444;48.148;11.542;2023-09-19T09:14:06;2.35;;;0.90;;
45011;SDS011;63444;48.148;11.542;2023-09-19T09:16:32;0.98;;;0.98;;
45011;SDS011;63444;48.148;11.542;2023-09-19T09:18:58;1.20;;;1.10;;
45011;SDS011;63444;48.148;11.542;2023-09-19T09:21:25;1.65;;;1.00;;
45011;SDS011;63444;48.148;11.542;2023-09-19T09:23:51;1.25;;;0.88;;
45011;SDS011;63444;48.148;11.542;2023-09-19T09:26:31;0.90;;;0.90;;
45011;SDS011;63444;48.148;11.542;2023-09-19T09:29:03;2.70;;;1.00;;
45011;SDS011;63444;48.148;11.542;2023-09-19T09:31:29;1.52;;;1.00;;
45011;SDS011;63444;48.148;11.542;2023-09-19T09:33:55;1.13;;;1.00;;
45011;SDS011;63444;48.148;11.542;2023-09-19T09:36:33;2.67;;;0.95;;
45011;SDS011;63444;48.148;11.542;2023-09-19T09:39:06;1.27;;;0.95;;
45011;SDS011;63444;48.148;11.542;2023-09-19T09:41:43;1.95;;;1.20;;
45011;SDS011;63444;48.148;11.542;2023-09-19T09:44:16;2.20;;;1.20;;
45011;SDS011;63444;48.148;11.542;2023-09-19T09:46:44;2.83;;;1.20;;
45011;SDS011;63444;48.148;11.542;2023-09-19T09:49:18;1.67;;;1.05;;
45011;SDS011;63444;48.148;11.542;2023-09-19T09:51:58;1.17;;;1.00;;
45011;SDS011;63444;48.148;11.542;2023-09-19T09:54:30;1.20;;;1.08;;
45011;SDS011;63444;48.148;11.542;2023-09-19T09:57:01;1.33;;;1.00;;
45011;SDS011;63444;48.148;11.542;2023-09-19T10:02:26;1.15;;;1.00;;
45011;SDS011;63444;48.148;11.542;2023-09-19T10:05:03;1.65;;;1.30;;
45011;SDS011;63444;48.148;11.542;2023-09-19T10:07:53;1.40;;;1.30;;
45011;SDS011;63444;48.148;11.542;2023-09-19T10:13:36;3.15;;;1.20;;
45011;SDS011;63444;48.148;11.542;2023-09-19T10:16:06;3.72;;;1.10;;
45011;SDS011;63444;48.148;11.542;2023-09-19T10:18:36;2.60;;;1.25;;
45011;SDS011;63444;48.148;11.542;2023-09-19T10:21:04;1.90;;;1.30;;
45011;SDS011;63444;48.148;11.542;2023-09-19T10:23:31;2.33;;;1.20;;
45011;SDS011;63444;48.148;11.542;2023-09-19T10:25:59;2.22;;;1.27;;
45011;SDS011;63444;48.148;11.542;2023-09-19T10:28:27;1.20;;;1.10;;
45011;SDS011;63444;48.148;11.542;2023-09-19T10:30:54;2.00;;;1.33;;
45011;SDS011;63444;48.148;11.542;2023-09-19T10:33:22;1.95;;;1.25;;
45011;SDS011;63444;48.148;11.542;2023-09-19T10:35:52;2.67;;;1.10;;
45011;SDS011;63444;48.148;11.542;2023-09-19T10:38:24;1.00;;;1.00;;
45011;SDS011;63444;48.148;11.542;2023-09-19T10:40:53;1.20;;;1.00;;
45011;SDS011;63444;48.148;11.542;2023-09-19T10:43:24;1.13;;;1.02;;
45011;SDS011;63444;48.148;11.542;2023-09-19T10:45:53;2.55;;;1.10;;
45011;SDS011;63444;48.148;11.542;2023-09-19T10:48:21;1.33;;;1.17;;
45011;SDS011;63444;48.148;11.542;2023-09-19T10:50:57;1.33;;;1.20;;
45011;SDS011;63444;48.148;11.542;2023-09-19T10:53:52;2.50;;;1.10;;
45011;SDS011;63444;48.148;11.542;2023-09-19T10:56:30;1.30;;;1.20;;
45011;SDS011;63444;48.148;11.542;2023-09-19T10:59:09;2.78;;;1.20;;
45011;SDS011;63444;48.148;11.542;2023-09-19T11:07:11;6.30;;;1.30;;
45011;SDS011;63444;48.148;11.542;2023-09-19T11:09:44;2.17;;;1.20;;
45011;SDS011;63444;48.148;11.542;2023-09-19T11:12:12;1.40;;;1.30;;
45011;SDS011;63444;48.148;11.542;2023-09-19T11:15:00;1.23;;;1.13;;
45011;SDS011;63444;48.148;11.542;2023-09-19T11:17:36;2.90;;;1.00;;
45011;SDS011;63444;48.148;11.542;2023-09-19T11:30:30;2.50;;;1.08;;
45011;SDS011;63444;48.148;11.542;2023-09-19T11:33:16;0.98;;;0.93;;
45011;SDS011;63444;48.148;11.542;2023-09-19T11:36:05;2.22;;;0.90;;
45011;SDS011;63444;48.148;11.542;2023-09-19T11:39:14;1.50;;;1.13;;
45011;SDS011;63444;48.148;11.542;2023-09-19T11:46:28;1.20;;;1.10;;
45011;SDS011;63444;48.148;11.542;2023-09-19T11:49:07;1.20;;;0.80;;
45011;SDS011;63444;48.148;11.542;2023-09-19T11:51:41;2.53;;;1.00;;
45011;SDS011;63444;48.148;11.542;2023-09-19T11:54:12;1.27;;;0.90;;
45011;SDS011;63444;48.148;11.542;2023-09-19T11:56:42;1.38;;;0.95;;
45011;SDS011;63444;48.148;11.542;2023-09-19T11:59:10;1.30;;;1.20;;
45011;SDS011;63444;48.148;11.542;2023-09-19T12:01:36;1.50;;;1.10;;
45011;SDS011;63444;48.148;11.542;2023-09-19T12:04:08;2.55;;;1.02;;
45011;SDS011;63444;48.148;11.542;2023-09-19T12:06:36;1.35;;;1.13;;
45011;SDS011;63444;48.148;11.542;2023-09-19T12:09:12;2.35;;;0.93;;
45011;SDS011;63444;48.148;11.542;2023-09-19T12:11:42;1.30;;;1.00;;
45011;SDS011;63444;48.148;11.542;2023-09-19T12:14:10;0.85;;;0.75;;
45011;SDS011;63444;48.148;11.542;2023-09-19T12:16:38;2.08;;;1.13;;
45011;SDS011;63444;48.148;11.542;2023-09-19T12:19:17;1.35;;;1.10;;
45011;SDS011;63444;48.148;11.542;2023-09-19T12:21:53;2.08;;;1.10;;
45011;SDS011;63444;48.148;11.542;2023-09-19T12:24:24;2.72;;;1.10;;
45011;SDS011;63444;48.148;11.542;2023-09-19T12:26:54;1.85;;;1.25;;
45011;SDS011;63444;48.148;11.542;2023-09-19T12:29:27;2.55;;;0.90;;
45011;SDS011;63444;48.148;11.542;2023-09-19T12:31:56;1.20;;;1.02;;
45011;SDS011;63444;48.148;11.542;2023-09-19T12:34:23;0.80;;;0.80;;
45011;SDS011;63444;48.148;11.542;2023-09-19T12:37:08;0.98;;;0.90;;
45011;SDS011;63444;48.148;11.542;2023-09-19T12:39:40;1.00;;;1.00;;
45011;SDS011;63444;48.148;11.542;2023-09-19T12:42:21;1.17;;;1.02;;
45011;SDS011;63444;48.148;11.542;2023-09-19T12:44:49;1.27;;;1.05;;
45011;SDS011;63444;48.148;11.542;2023-09-19T12:47:20;1.02;;;0.98;;
45011;SDS011;63444;48.148;11.542;2023-09-19T12:55:20;2.70;;;1.10;;
45011;SDS011;63444;48.148;11.542;2023-09-19T13:00:31;1.67;;;0.98;;
45011;SDS011;63444;48.148;11.542;2023-09-19T13:03:14;1.50;;;1.00;;
45011;SDS011;63444;48.148;11.542;2023-09-19T13:08:20;2.75;;;1.17;;
45011;SDS011;63444;48.148;11.542;2023-09-19T13:13:32;3.33;;;1.15;;
45011;SDS011;63444;48.148;11.542;2023-09-19T13:15:58;1.67;;;1.00;;
45011;SDS011;63444;48.148;11.542;2023-09-19T13:18:26;1.10;;;1.00;;
45011;SDS011;63444;48.148;11.542;2023-09-19T13:21:08;1.70;;;1.23;;
45011;SDS011;63444;48.148;11.542;2023-09-19T13:23:40;2.38;;;0.95;;
45011;SDS011;63444;48.148;11.542;2023-09-19T13:26:08;1.05;;;0.90;;
45011;SDS011;63444;48.148;11.542;2023-09-19T13:28:35;2.08;;;1.13;;
45011;SDS011;63444;48.148;11.542;2023-09-19T13:31:02;1.30;;;1.20;;
45011;SDS011;63444;48.148;11.542;2023-09-19T13:33:28;2.00;;;1.40;;
45011;SDS011;63444;48.148;11.542;2023-09-19T13:35:53;1.30;;;1.17;;
45011;SDS011;63444;48.148;11.542;2023-09-19T13:38:20;1.00;;;1.00;;
45011;SDS011;63444;48.148;11.542;2023-09-19T13:40:47;1.50;;;1.10;;
45011;SDS011;63444;48.148;11.542;2023-09-19T13:43:13;2.20;;;1.00;;
45011;SDS011;63444;48.148;11.542;2023-09-19T13:45:39;2.00;;;1.10;;
45011;SDS011;63444;48.148;11.542;2023-09-19T13:48:07;2.22;;;1.40;;
45011;SDS011;63444;48.148;11.542;2023-09-19T13:50:34;1.15;;;1.10;;
45011;SDS011;63444;48.148;11.542;2023-09-19T13:53:01;2.50;;;1.20;;
45011;SDS011;63444;48.148;11.542;2023-09-19T13:55:28;1.20;;;1.10;;
45011;SDS011;63444;48.148;11.542;2023-09-19T13:57:54;1.20;;;1.10;;
45011;SDS011;63444;48.148;11.542;2023-09-19T14:00:20;1.67;;;1.10;;
45011;SDS011;63444;48.148;11.542;2023-09-19T14:02:49;1.65;;;1.23;;
45011;SDS011;63444;48.148;11.542;2023-09-19T14:05:15;3.30;;;1.20;;
45011;SDS011;63444;48.148;11.542;2023-09-19T14:07:42;1.05;;;0.95;;
45011;SDS011;63444;48.148;11.542;2023-09-19T14:10:08;1.48;;;1.20;;
45011;SDS011;63444;48.148;11.542;2023-09-19T14:12:35;4.40;;;1.10;;
45011;SDS011;63444;48.148;11.542;2023-09-19T14:15:07;1.20;;;1.02;;
45011;SDS011;63444;48.148;11.542;2023-09-19T14:17:34;0.98;;;0.98;;
45011;SDS011;63444;48.148;11.542;2023-09-19T14:19:59;0.90;;;0.90;;
45011;SDS011;63444;48.148;11.542;2023-09-19T14:22:25;1.85;;;1.05;;
45011;SDS011;63444;48.148;11.542;2023-09-19T14:24:51;1.63;;;1.10;;
45011;SDS011;63444;48.148;11.542;2023-09-19T14:27:17;0.80;;;0.80;;
45011;SDS011;63444;48.148;11.542;2023-09-19T14:29:43;1.75;;;1.10;;
45011;SDS011;63444;48.148;11.542;2023-09-19T14:32:09;1.05;;;1.00;;
45011;SDS011;63444;48.148;11.542;2023-09-19T14:34:35;2.50;;;0.90;;
45011;SDS011;63444;48.148;11.542;2023-09-19T14:37:06;1.17;;;0.90;;
45011;SDS011;63444;48.148;11.542;2023-09-19T14:39:32;1.50;;;1.10;;
45011;SDS011;63444;48.148;11.542;2023-09-19T14:41:58;1.20;;;1.00;;
45011;SDS011;63444;48.148;11.542;2023-09-19T14:44:23;1.38;;;0.90;;
45011;SDS011;63444;48.148;11.542;2023-09-19T14:46:49;1.55;;;1.00;;
45011;SDS011;63444;48.148;11.542;2023-09-19T14:49:15;0.98;;;0.98;;
45011;SDS011;63444;48.148;11.542;2023-09-19T14:51:41;1.60;;;1.10;;
45011;SDS011;63444;48.148;11.542;2023-09-19T14:54:09;1.33;;;1.00;;
45011;SDS011;63444;48.148;11.542;2023-09-19T14:56:35;1.00;;;0.90;;
45011;SDS011;63444;48.148;11.542;2023-09-19T14:59:00;1.25;;;1.05;;
45011;SDS011;63444;48.148;11.542;2023-09-19T15:01:26;3.13;;;0.98;;
45011;SDS011;63444;48.148;11.542;2023-09-19T15:03:53;0.90;;;0.90;;
45011;SDS011;63444;48.148;11.542;2023-09-19T15:06:20;2.70;;;1.00;;
45011;SDS011;63444;48.148;11.542;2023-09-19T15:08:47;3.20;;;1.00;;
45011;SDS011;63444;48.148;11.542;2023-09-19T15:11:13;0.93;;;0.93;;
45011;SDS011;63444;48.148;11.542;2023-09-19T15:13:41;1.30;;;1.08;;
45011;SDS011;63444;48.148;11.542;2023-09-19T15:16:08;2.30;;;1.23;;
45011;SDS011;63444;48.148;11.542;2023-09-19T15:18:35;1.60;;;1.02;;
45011;SDS011;63444;48.148;11.542;2023-09-19T15:21:06;1.50;;;1.20;;
45011;SDS011;63444;48.148;11.542;2023-09-19T15:23:33;0.85;;;0.85;;
45011;SDS011;63444;48.148;11.542;2023-09-19T15:26:00;1.05;;;0.90;;
45011;SDS011;63444;48.148;11.542;2023-09-19T15:28:26;1.10;;;1.00;;
45011;SDS011;63444;48.148;11.542;2023-09-19T15:31:00;1.63;;;0.93;;
45011;SDS011;63444;48.148;11.542;2023-09-19T15:33:26;1.58;;;1.48;;
45011;SDS011;63444;48.148;11.542;2023-09-19T15:36:00;1.20;;;0.93;;